createdAt,value
2018-06-18T00:00:09.168Z,2.95
2018-06-18T00:02:38.070Z,3.12
2018-06-18T00:05:06.954Z,3.30
2018-06-18T00:07:35.849Z,3.20
2018-06-18T00:10:04.811Z,2.90
2018-06-18T00:12:33.690Z,2.85
2018-06-18T00:15:02.614Z,3.20
2018-06-18T00:17:31.506Z,3.22
2018-06-18T00:20:00.387Z,2.47
2018-06-18T00:22:29.287Z,2.77
2018-06-18T00:24:58.162Z,2.67
2018-06-18T00:27:27.180Z,3.02
2018-06-18T00:29:56.202Z,3.15
2018-06-18T00:32:25.114Z,2.67
2018-06-18T00:34:53.997Z,2.90
2018-06-18T00:37:22.901Z,3.02
2018-06-18T00:39:52.611Z,3.30
2018-06-18T00:42:21.478Z,3.00
2018-06-18T00:44:50.658Z,2.72
2018-06-18T00:47:19.538Z,3.20
2018-06-18T00:49:48.466Z,3.20
2018-06-18T00:52:17.362Z,2.80
2018-06-18T00:54:46.237Z,2.87
2018-06-18T00:59:46.223Z,2.90
2018-06-18T01:02:15.400Z,3.10
2018-06-18T01:04:44.520Z,3.25
2018-06-18T01:07:13.711Z,2.92
2018-06-18T01:09:43.011Z,2.62
2018-06-18T01:12:12.125Z,2.67
2018-06-18T01:14:41.227Z,2.75
2018-06-18T01:17:10.467Z,2.92
2018-06-18T01:19:39.761Z,2.52
2018-06-18T01:22:08.867Z,3.00
2018-06-18T01:24:46.507Z,3.05
2018-06-18T01:27:15.626Z,2.92
2018-06-18T01:29:44.739Z,3.00
2018-06-18T01:32:14.582Z,2.62
2018-06-18T01:34:43.691Z,3.00
2018-06-18T01:37:12.831Z,2.70
2018-06-18T01:39:41.978Z,2.70
2018-06-18T01:42:11.122Z,3.30
2018-06-18T01:44:40.247Z,2.77
2018-06-18T01:47:09.374Z,2.98
2018-06-18T01:49:38.509Z,2.80
2018-06-18T01:52:07.275Z,2.77
2018-06-18T01:54:36.293Z,3.20
2018-06-18T01:57:05.460Z,2.83
2018-06-18T01:59:35.247Z,2.40
2018-06-18T02:02:04.672Z,2.85
2018-06-18T02:04:33.843Z,2.80
2018-06-18T02:07:02.947Z,2.60
2018-06-18T02:09:32.040Z,2.50
2018-06-18T02:12:01.375Z,2.65
2018-06-18T02:14:30.530Z,2.35
2018-06-18T02:16:59.636Z,3.17
2018-06-18T02:19:28.815Z,3.17
2018-06-18T02:21:57.952Z,2.95
2018-06-18T02:24:27.180Z,2.92
2018-06-18T02:27:01.984Z,2.70
2018-06-18T02:29:36.247Z,2.77
2018-06-18T02:32:10.652Z,2.85
2018-06-18T02:34:45.135Z,2.47
2018-06-18T02:37:19.763Z,2.72
2018-06-18T02:39:54.319Z,2.65
2018-06-18T02:42:23.941Z,3.05
2018-06-18T02:44:53.043Z,5.62
2018-06-18T02:47:22.175Z,2.60
2018-06-18T02:49:51.366Z,2.62
2018-06-18T02:52:20.472Z,2.75
2018-06-18T02:54:49.609Z,2.83
2018-06-18T02:57:18.840Z,3.30
2018-06-18T02:59:47.986Z,2.65
2018-06-18T03:02:17.224Z,2.83
2018-06-18T03:04:46.417Z,2.83
2018-06-18T03:07:15.552Z,2.87
2018-06-18T03:09:44.959Z,3.12
2018-06-18T03:12:14.222Z,3.27
2018-06-18T03:14:43.616Z,3.47
2018-06-18T03:17:12.799Z,3.17
2018-06-18T03:19:47.321Z,3.17
2018-06-18T03:23:21.751Z,3.50
2018-06-18T03:25:56.103Z,2.80
2018-06-18T03:28:30.382Z,3.15
2018-06-18T03:30:59.538Z,2.70
2018-06-18T03:33:28.634Z,3.40
2018-06-18T03:35:58.104Z,2.37
2018-06-18T03:38:27.631Z,3.33
2018-06-18T03:40:56.804Z,3.10
2018-06-18T03:43:26.189Z,4.08
2018-06-18T03:45:55.315Z,3.00
2018-06-18T03:48:24.394Z,3.25
2018-06-18T03:50:53.492Z,3.45
2018-06-18T03:53:22.884Z,3.00
2018-06-18T03:55:55.626Z,3.42
2018-06-18T03:58:24.739Z,2.87
2018-06-18T04:02:13.256Z,3.00
2018-06-18T04:05:02.551Z,2.75
2018-06-18T04:07:41.519Z,3.58
2018-06-18T04:10:15.547Z,3.12
2018-06-18T04:12:45.862Z,2.83
2018-06-18T04:15:15.023Z,2.98
2018-06-18T04:17:44.159Z,3.30
2018-06-18T04:20:13.384Z,2.33
2018-06-18T04:22:42.622Z,2.92
2018-06-18T04:25:11.865Z,3.22
2018-06-18T04:27:41.099Z,3.15
2018-06-18T04:30:10.247Z,2.98
2018-06-18T04:32:39.393Z,2.98
2018-06-18T04:35:10.044Z,3.08
2018-06-18T04:37:39.248Z,2.50
2018-06-18T04:40:08.872Z,3.10
2018-06-18T04:42:43.527Z,2.90
2018-06-18T04:45:17.892Z,2.50
2018-06-18T04:47:52.239Z,3.10
2018-06-18T04:50:26.671Z,2.70
2018-06-18T04:52:55.434Z,2.95
2018-06-18T04:55:24.447Z,3.40
2018-06-18T04:57:53.560Z,2.87
2018-06-18T05:00:43.342Z,2.00
2018-06-18T05:03:12.503Z,2.35
2018-06-18T05:05:41.601Z,2.70
2018-06-18T05:10:40.587Z,2.75
2018-06-18T05:13:09.710Z,2.10
2018-06-18T05:15:40.747Z,2.72
2018-06-18T05:18:10.043Z,3.37
2018-06-18T05:20:39.210Z,1.92
2018-06-18T05:23:13.597Z,2.42
2018-06-18T05:25:43.114Z,2.35
2018-06-18T05:28:12.239Z,2.27
2018-06-18T05:30:41.392Z,2.47
2018-06-18T05:33:10.625Z,2.20
2018-06-18T05:35:40.031Z,2.10
2018-06-18T05:38:19.068Z,2.45
2018-06-18T05:40:48.103Z,2.37
2018-06-18T05:43:17.202Z,2.05
2018-06-18T05:45:46.323Z,2.00
2018-06-18T05:48:15.827Z,2.62
2018-06-18T05:50:44.974Z,2.50
2018-06-18T05:53:14.071Z,2.00
2018-06-18T05:55:43.214Z,1.85
2018-06-18T05:58:12.651Z,1.70
2018-06-18T06:00:41.862Z,1.87
2018-06-18T06:03:11.011Z,1.40
2018-06-18T06:05:40.191Z,1.82
2018-06-18T06:08:08.996Z,2.02
2018-06-18T06:10:38.751Z,1.60
2018-06-18T06:13:08.986Z,1.95
2018-06-18T06:15:38.188Z,1.80
2018-06-18T06:18:07.735Z,2.02
2018-06-18T06:20:39.913Z,2.30
2018-06-18T06:23:09.135Z,2.00
2018-06-18T06:25:38.248Z,2.00
2018-06-18T06:28:07.369Z,2.00
2018-06-18T06:30:37.523Z,1.80
2018-06-18T06:33:06.707Z,1.90
2018-06-18T06:35:38.479Z,1.80
2018-06-18T06:38:07.743Z,1.57
2018-06-18T06:40:37.016Z,2.40
2018-06-18T06:43:06.439Z,2.10
2018-06-18T06:45:36.094Z,2.00
2018-06-18T06:48:05.259Z,2.20
2018-06-18T06:50:34.363Z,2.20
2018-06-18T06:53:03.456Z,2.00
2018-06-18T06:55:32.587Z,1.60
2018-06-18T06:58:01.707Z,1.72
2018-06-18T07:00:30.827Z,1.77
2018-06-18T07:02:59.948Z,1.67
2018-06-18T07:05:29.082Z,2.77
2018-06-18T07:07:58.293Z,1.57
2018-06-18T07:10:27.412Z,2.40
2018-06-18T07:12:56.643Z,2.05
2018-06-18T07:15:25.876Z,2.17
2018-06-18T07:17:54.980Z,1.75
2018-06-18T07:20:24.063Z,1.90
2018-06-18T07:22:53.187Z,2.05
2018-06-18T07:25:22.299Z,1.62
2018-06-18T07:27:51.447Z,1.80
2018-06-18T07:30:20.651Z,1.50
2018-06-18T07:32:49.756Z,1.40
2018-06-18T07:35:18.852Z,1.47
2018-06-18T07:37:48.991Z,1.90
2018-06-18T07:40:18.080Z,1.60
2018-06-18T07:42:47.199Z,1.45
2018-06-18T07:45:16.725Z,1.82
2018-06-18T07:47:45.898Z,1.75
2018-06-18T07:50:15.068Z,2.50
2018-06-18T07:52:44.200Z,1.87
2018-06-18T07:55:13.438Z,1.45
2018-06-18T07:57:42.531Z,1.60
2018-06-18T08:00:13.907Z,1.80
2018-06-18T08:02:45.723Z,1.60
2018-06-18T08:05:14.967Z,1.65
2018-06-18T08:07:44.135Z,1.95
2018-06-18T08:10:13.293Z,1.82
2018-06-18T08:12:42.487Z,2.02
2018-06-18T08:15:13.424Z,2.50
2018-06-18T08:17:42.595Z,1.67
2018-06-18T08:20:15.147Z,1.52
2018-06-18T08:22:44.852Z,1.57
2018-06-18T08:25:14.033Z,1.55
2018-06-18T08:27:50.448Z,1.87
2018-06-18T08:30:19.553Z,2.42
2018-06-18T08:32:48.660Z,1.90
2018-06-18T08:35:17.748Z,1.92
2018-06-18T08:37:46.850Z,1.55
2018-06-18T08:40:15.935Z,2.00
2018-06-18T08:42:45.044Z,1.60
2018-06-18T08:45:14.161Z,1.75
2018-06-18T08:47:43.288Z,1.90
2018-06-18T08:50:17.498Z,1.65
2018-06-18T08:53:54.507Z,1.80
2018-06-18T08:56:28.872Z,1.72
2018-06-18T08:59:03.567Z,2.25
2018-06-18T09:01:33.885Z,2.02
2018-06-18T09:04:11.268Z,2.50
2018-06-18T09:06:40.460Z,2.35
2018-06-18T09:09:10.131Z,2.65
2018-06-18T09:11:39.607Z,1.67
2018-06-18T09:14:09.028Z,2.12
2018-06-18T09:16:38.444Z,1.85
2018-06-18T09:19:07.756Z,2.10
2018-06-18T09:21:36.849Z,2.10
2018-06-18T09:24:06.181Z,1.60
2018-06-18T09:26:35.323Z,2.22
2018-06-18T09:29:04.489Z,2.08
2018-06-18T09:31:33.630Z,1.90
2018-06-18T09:34:02.726Z,2.00
2018-06-18T09:36:31.836Z,2.20
2018-06-18T09:39:01.254Z,2.10
2018-06-18T09:41:30.354Z,1.60
2018-06-18T09:43:59.587Z,2.37
2018-06-18T09:46:28.755Z,2.80
2018-06-18T09:49:03.295Z,2.47
2018-06-18T09:51:37.818Z,2.45
2018-06-18T09:55:13.346Z,2.30
2018-06-18T09:57:47.894Z,1.90
2018-06-18T10:00:32.335Z,2.03
2018-06-18T10:03:01.420Z,1.73
2018-06-18T10:05:30.687Z,2.22
2018-06-18T10:07:59.774Z,2.37
2018-06-18T10:10:28.997Z,2.10
2018-06-18T10:12:58.112Z,2.02
2018-06-18T10:15:27.364Z,1.80
2018-06-18T10:17:56.193Z,1.90
2018-06-18T10:20:25.230Z,1.95
2018-06-18T10:22:54.505Z,2.50
2018-06-18T10:25:23.727Z,2.15
2018-06-18T10:27:52.905Z,2.05
2018-06-18T10:30:22.023Z,2.30
2018-06-18T10:32:56.504Z,1.98
2018-06-18T10:35:30.884Z,2.37
2018-06-18T10:38:05.391Z,1.85
2018-06-18T10:40:39.694Z,1.83
2018-06-18T10:43:14.310Z,2.00
2018-06-18T10:45:43.443Z,2.13
2018-06-18T10:48:12.556Z,2.23
2018-06-18T10:50:41.759Z,1.93
2018-06-18T10:53:10.888Z,2.67
2018-06-18T10:55:39.979Z,2.10
2018-06-18T10:58:09.207Z,2.07
2018-06-18T11:00:38.932Z,1.67
2018-06-18T11:03:08.087Z,1.87
2018-06-18T11:05:42.695Z,1.80
2018-06-18T11:08:11.832Z,1.90
2018-06-18T11:10:40.967Z,1.80
2018-06-18T11:13:10.252Z,1.90
2018-06-18T11:15:39.375Z,1.63
2018-06-18T11:18:13.959Z,1.57
2018-06-18T11:20:48.495Z,2.07
2018-06-18T11:23:22.872Z,2.07
2018-06-18T11:25:57.303Z,2.60
2018-06-18T11:28:26.471Z,1.97
2018-06-18T11:30:55.589Z,1.80
2018-06-18T11:33:24.690Z,1.63
2018-06-18T11:35:53.835Z,1.40
2018-06-18T11:38:22.943Z,1.70
2018-06-18T11:40:52.047Z,1.73
2018-06-18T11:43:20.778Z,2.00
2018-06-18T11:45:49.798Z,1.90
2018-06-18T11:48:20.201Z,1.77
2018-06-18T11:50:49.656Z,1.60
2018-06-18T11:53:19.567Z,2.10
2018-06-18T11:55:48.719Z,1.57
2018-06-18T11:58:23.855Z,1.50
2018-06-18T12:00:58.149Z,1.60
2018-06-18T12:03:35.682Z,1.63
2018-06-18T12:06:10.215Z,1.60
2018-06-18T12:08:44.820Z,1.90
2018-06-18T12:11:14.015Z,2.03
2018-06-18T12:13:43.228Z,1.43
2018-06-18T12:16:12.035Z,1.63
2018-06-18T12:18:41.078Z,1.70
2018-06-18T12:21:10.243Z,1.70
2018-06-18T12:23:39.596Z,1.70
2018-06-18T12:26:08.815Z,1.47
2018-06-18T12:28:37.945Z,1.70
2018-06-18T12:31:07.379Z,1.30
2018-06-18T12:33:36.771Z,1.60
2018-06-18T12:36:05.993Z,1.80
2018-06-18T12:38:35.138Z,1.50
2018-06-18T12:41:04.283Z,1.60
2018-06-18T12:43:36.611Z,1.87
2018-06-18T12:46:10.965Z,1.27
2018-06-18T12:48:45.423Z,1.50
2018-06-18T12:51:20.039Z,1.20
2018-06-18T12:53:54.511Z,1.37
2018-06-18T12:56:29.079Z,1.63
2018-06-18T12:58:58.275Z,1.40
2018-06-18T13:01:30.021Z,1.70
2018-06-18T13:03:59.160Z,1.50
2018-06-18T13:06:28.266Z,1.50
2018-06-18T13:08:57.362Z,1.50
2018-06-18T13:11:26.564Z,1.33
2018-06-18T13:13:55.644Z,1.70
2018-06-18T13:16:24.803Z,1.80
2018-06-18T13:18:53.895Z,4.03
2018-06-18T13:21:22.983Z,1.00
2018-06-18T13:23:52.058Z,1.80
2018-06-18T13:26:21.172Z,1.30
2018-06-18T13:28:50.338Z,1.20
2018-06-18T13:31:19.450Z,1.33
2018-06-18T13:33:48.532Z,2.17
2018-06-18T13:36:17.680Z,1.40
2018-06-18T13:38:52.164Z,1.43
2018-06-18T13:41:26.730Z,1.60
2018-06-18T13:44:01.201Z,1.77
2018-06-18T13:46:35.485Z,1.70
2018-06-18T13:49:04.628Z,1.30
2018-06-18T13:51:33.707Z,1.30
2018-06-18T13:54:02.822Z,1.47
2018-06-18T13:56:31.931Z,1.47
2018-06-18T13:59:01.022Z,1.10
2018-06-18T14:01:30.111Z,1.20
2018-06-18T14:03:59.245Z,1.10
2018-06-18T14:06:28.379Z,1.10
2018-06-18T14:08:57.491Z,1.70
2018-06-18T14:11:26.559Z,1.50
2018-06-18T14:13:55.725Z,1.47
2018-06-18T14:16:24.767Z,1.50
2018-06-18T14:18:53.875Z,2.03
2018-06-18T14:21:22.976Z,1.97
2018-06-18T14:23:51.693Z,1.13
2018-06-18T14:26:20.703Z,0.90
2018-06-18T14:28:49.795Z,1.50
2018-06-18T14:31:24.244Z,1.47
2018-06-18T14:33:58.766Z,1.37
2018-06-18T14:36:33.223Z,1.30
2018-06-18T14:39:07.408Z,1.30
2018-06-18T14:41:36.515Z,1.10
2018-06-18T14:44:05.616Z,1.47
2018-06-18T14:46:34.783Z,1.30
2018-06-18T14:49:03.872Z,1.30
2018-06-18T14:51:33.043Z,0.93
2018-06-18T14:54:02.202Z,1.00
2018-06-18T14:56:34.607Z,1.00
2018-06-18T14:59:17.593Z,1.40
2018-06-18T15:01:46.783Z,0.90
2018-06-18T15:04:15.911Z,1.20
2018-06-18T15:06:45.104Z,1.33
2018-06-18T15:09:14.253Z,1.57
2018-06-18T15:11:44.099Z,1.60
2018-06-18T15:14:13.312Z,1.30
2018-06-18T15:16:42.535Z,1.30
2018-06-18T15:19:11.754Z,1.70
2018-06-18T15:21:45.992Z,0.90
2018-06-18T15:24:22.251Z,1.33
2018-06-18T15:26:51.575Z,1.00
2018-06-18T15:29:20.661Z,1.20
2018-06-18T15:31:49.880Z,1.37
2018-06-18T15:34:19.280Z,1.50
2018-06-18T15:36:48.461Z,1.40
2018-06-18T15:39:17.579Z,1.23
2018-06-18T15:41:46.887Z,1.17
2018-06-18T15:44:16.091Z,1.60
2018-06-18T15:46:44.768Z,1.07
2018-06-18T15:49:13.808Z,1.30
2018-06-18T15:51:42.984Z,1.40
2018-06-18T15:54:12.130Z,1.50
2018-06-18T15:56:41.312Z,1.20
2018-06-18T15:59:10.410Z,1.40
2018-06-18T16:01:39.630Z,1.37
2018-06-18T16:04:09.011Z,1.47
2018-06-18T16:06:38.156Z,1.30
2018-06-18T16:09:08.060Z,1.17
2018-06-18T16:11:36.995Z,1.27
2018-06-18T16:14:06.373Z,1.30
2018-06-18T16:16:35.464Z,1.20
2018-06-18T16:19:04.615Z,1.10
2018-06-18T16:21:33.747Z,1.23
2018-06-18T16:24:02.854Z,1.27
2018-06-18T16:26:31.953Z,1.27
2018-06-18T16:29:01.119Z,1.37
2018-06-18T16:31:30.199Z,1.47
2018-06-18T16:33:59.290Z,1.20
2018-06-18T16:36:28.395Z,1.60
2018-06-18T16:38:57.144Z,1.63
2018-06-18T16:41:26.307Z,1.47
2018-06-18T16:43:55.447Z,1.70
2018-06-18T16:46:24.542Z,1.20
2018-06-18T16:48:53.968Z,1.20
2018-06-18T16:51:23.154Z,1.47
2018-06-18T16:53:52.239Z,1.50
2018-06-18T16:56:21.427Z,1.47
2018-06-18T16:58:50.529Z,1.30
2018-06-18T17:01:19.703Z,1.40
2018-06-18T17:03:48.783Z,1.43
2018-06-18T17:06:17.906Z,2.00
2018-06-18T17:08:48.163Z,1.37
2018-06-18T17:11:17.276Z,1.60
2018-06-18T17:13:45.998Z,2.03
2018-06-18T17:16:15.080Z,1.60
2018-06-18T17:18:44.194Z,1.60
2018-06-18T17:21:13.292Z,1.70
2018-06-18T17:23:42.398Z,1.70
2018-06-18T17:26:12.225Z,1.50
2018-06-18T17:28:41.727Z,1.73
2018-06-18T17:31:10.976Z,1.90
2018-06-18T17:33:40.467Z,1.97
2018-06-18T17:36:09.571Z,1.80
2018-06-18T17:38:38.924Z,1.90
2018-06-18T17:41:08.204Z,1.30
2018-06-18T17:43:37.571Z,1.50
2018-06-18T17:46:06.774Z,1.53
2018-06-18T17:48:40.676Z,1.50
2018-06-18T17:51:12.492Z,1.90
2018-06-18T17:53:41.669Z,1.70
2018-06-18T17:56:10.824Z,2.20
2018-06-18T17:58:40.323Z,1.70
2018-06-18T18:01:09.516Z,1.87
2018-06-18T18:03:38.619Z,1.67
2018-06-18T18:06:07.779Z,1.70
2018-06-18T18:08:37.537Z,1.30
2018-06-18T18:11:06.693Z,1.80
2018-06-18T18:13:35.909Z,2.30
2018-06-18T18:16:24.494Z,1.67
2018-06-18T18:18:53.715Z,2.00
2018-06-18T18:21:22.849Z,1.80
2018-06-18T18:23:52.009Z,2.00
2018-06-18T18:26:21.171Z,2.03
2018-06-18T18:31:50.298Z,2.27
2018-06-18T18:34:19.459Z,3.40
2018-06-18T18:36:48.546Z,2.30
2018-06-18T18:39:17.718Z,2.23
2018-06-18T18:41:46.834Z,2.50
2018-06-18T18:44:16.983Z,2.30
2018-06-18T18:46:46.079Z,2.23
2018-06-18T18:49:15.215Z,2.20
2018-06-18T18:51:44.339Z,2.07
2018-06-18T18:54:24.790Z,2.33
2018-06-18T18:57:09.003Z,2.27
2018-06-18T18:59:40.469Z,2.40
2018-06-18T19:02:09.648Z,2.75
2018-06-18T19:04:50.213Z,2.20
2018-06-18T19:07:23.263Z,2.45
2018-06-18T19:09:56.787Z,2.27
2018-06-18T19:12:25.903Z,3.12
2018-06-18T19:14:55.015Z,3.00
2018-06-18T19:17:24.167Z,2.00
2018-06-18T19:19:58.058Z,2.40
2018-06-18T19:22:27.334Z,2.80
2018-06-18T19:24:56.487Z,2.60
2018-06-18T19:27:25.614Z,2.45
2018-06-18T19:29:54.769Z,2.35
2018-06-18T19:32:23.847Z,3.47
2018-06-18T19:34:53.038Z,3.27
2018-06-18T19:37:22.181Z,2.92
2018-06-18T19:39:51.303Z,3.22
2018-06-18T19:42:20.494Z,3.00
2018-06-18T19:44:49.632Z,2.70
2018-06-18T19:47:26.829Z,3.20
2018-06-18T19:49:56.010Z,2.95
2018-06-18T19:52:25.212Z,3.25
2018-06-18T19:54:58.359Z,3.35
2018-06-18T19:57:27.126Z,2.50
2018-06-18T19:59:56.135Z,2.77
2018-06-18T20:02:25.328Z,3.08
2018-06-18T20:04:54.494Z,2.98
2018-06-18T20:07:24.887Z,3.47
2018-06-18T20:09:53.991Z,2.87
2018-06-18T20:12:23.335Z,2.85
2018-06-18T20:14:52.495Z,3.33
2018-06-18T20:17:21.602Z,2.85
2018-06-18T20:19:50.688Z,3.30
2018-06-18T20:22:19.918Z,3.20
2018-06-18T20:24:50.261Z,3.00
2018-06-18T20:27:19.445Z,5.30
2018-06-18T20:29:49.234Z,2.87
2018-06-18T20:32:18.403Z,2.72
2018-06-18T20:34:47.844Z,3.30
2018-06-18T20:37:17.164Z,3.25
2018-06-18T20:39:50.879Z,2.90
2018-06-18T20:42:20.071Z,3.45
2018-06-18T20:44:49.207Z,3.15
2018-06-18T20:47:18.578Z,3.15
2018-06-18T20:49:47.886Z,3.20
2018-06-18T20:52:17.125Z,4.53
2018-06-18T20:54:46.414Z,3.80
2018-06-18T20:57:15.678Z,3.17
2018-06-18T20:59:52.263Z,3.60
2018-06-18T21:02:23.848Z,3.20
2018-06-18T21:04:54.093Z,3.55
2018-06-18T21:07:23.417Z,3.62
2018-06-18T21:09:54.402Z,3.50
2018-06-18T21:12:23.831Z,3.20
2018-06-18T21:14:59.324Z,3.62
2018-06-18T21:17:28.793Z,3.12
2018-06-18T21:19:58.201Z,3.20
2018-06-18T21:22:29.693Z,3.30
2018-06-18T21:24:58.935Z,3.35
2018-06-18T21:27:29.263Z,3.40
2018-06-18T21:29:58.661Z,4.17
2018-06-18T21:32:28.319Z,3.45
2018-06-18T21:34:58.410Z,3.47
2018-06-18T21:37:27.655Z,4.72
2018-06-18T21:39:57.276Z,2.98
2018-06-18T21:42:28.856Z,3.65
2018-06-18T21:45:05.827Z,3.67
2018-06-18T21:47:34.905Z,3.70
2018-06-18T21:50:04.342Z,3.72
2018-06-18T21:52:33.512Z,4.80
2018-06-18T21:55:02.864Z,3.83
2018-06-18T21:57:31.951Z,3.50
2018-06-18T22:00:01.832Z,3.80
2018-06-18T22:02:30.974Z,3.67
2018-06-18T22:05:00.115Z,4.03
2018-06-18T22:07:29.239Z,4.08
2018-06-18T22:09:58.379Z,3.75
2018-06-18T22:12:27.487Z,4.17
2018-06-18T22:14:56.634Z,5.90
2018-06-18T22:17:25.947Z,4.08
2018-06-18T22:19:55.223Z,4.12
2018-06-18T22:22:24.357Z,3.72
2018-06-18T22:24:53.504Z,4.20
2018-06-18T22:27:22.818Z,3.80
2018-06-18T22:29:51.923Z,4.12
2018-06-18T22:32:21.091Z,4.20
2018-06-18T22:34:49.854Z,4.42
2018-06-18T22:37:18.878Z,3.70
2018-06-18T22:39:48.451Z,4.15
2018-06-18T22:42:17.620Z,3.92
2018-06-18T22:44:46.728Z,4.45
2018-06-18T22:47:15.927Z,3.80
2018-06-18T22:49:45.134Z,4.95
2018-06-18T22:52:14.571Z,4.58
2018-06-18T22:54:45.103Z,4.25
2018-06-18T22:57:14.442Z,4.35
2018-06-18T22:59:43.310Z,6.70
2018-06-18T23:02:13.667Z,5.40
2018-06-18T23:04:42.899Z,4.17
2018-06-18T23:07:12.120Z,3.80
2018-06-18T23:09:41.294Z,5.17
2018-06-18T23:12:10.441Z,4.83
2018-06-18T23:14:39.790Z,4.60
2018-06-18T23:17:09.144Z,4.95
2018-06-18T23:19:38.355Z,4.65
2018-06-18T23:22:07.863Z,4.53
2018-06-18T23:24:37.128Z,3.92
2018-06-18T23:27:06.726Z,3.92
2018-06-18T23:29:35.816Z,5.83
2018-06-18T23:32:04.962Z,4.50
2018-06-18T23:34:34.054Z,4.45
2018-06-18T23:37:03.169Z,4.60
2018-06-18T23:39:32.363Z,4.15
2018-06-18T23:42:01.555Z,5.17
2018-06-18T23:44:30.659Z,4.95
2018-06-18T23:46:59.796Z,4.58
2018-06-18T23:49:28.890Z,4.47
2018-06-18T23:51:57.644Z,4.67
2018-06-18T23:54:26.674Z,4.85
2018-06-18T23:56:55.750Z,4.90
2018-06-18T23:59:25.003Z,5.42
